Map

Track Data

SID SEASON NUMBER BASIN SUBBASIN NAME ISO_TIME NATURE LAT LON WMO_WIND WMO_PRES WMO_AGENCY TRACK_TYPE DIST2LAND LANDFALL IFLAG USA_AGENCY USA_ATCF_ID USA_LAT USA_LON USA_RECORD USA_STATUS USA_WIND USA_PRES USA_SSHS USA_R34_NE USA_R34_SE USA_R34_SW USA_R34_NW USA_R50_NE USA_R50_SE USA_R50_SW USA_R50_NW USA_R64_NE USA_R64_SE USA_R64_SW USA_R64_NW USA_POCI USA_ROCI USA_RMW USA_EYE TOKYO_LAT TOKYO_LON TOKYO_GRADE TOKYO_WIND TOKYO_PRES TOKYO_R50_DIR TOKYO_R50_LONG TOKYO_R50_SHORT TOKYO_R30_DIR TOKYO_R30_LONG TOKYO_R30_SHORT TOKYO_LAND CMA_LAT CMA_LON CMA_CAT CMA_WIND CMA_PRES HKO_LAT HKO_LON HKO_CAT HKO_WIND HKO_PRES NEWDELHI_LAT NEWDELHI_LON NEWDELHI_GRADE NEWDELHI_WIND NEWDELHI_PRES NEWDELHI_CI NEWDELHI_DP NEWDELHI_POCI REUNION_LAT REUNION_LON REUNION_TYPE REUNION_WIND REUNION_PRES REUNION_TNUM REUNION_CI REUNION_RMW REUNION_R34_NE REUNION_R34_SE REUNION_R34_SW REUNION_R34_NW REUNION_R50_NE REUNION_R50_SE REUNION_R50_SW REUNION_R50_NW REUNION_R64_NE REUNION_R64_SE REUNION_R64_SW REUNION_R64_NW BOM_LAT BOM_LON BOM_TYPE BOM_WIND BOM_PRES BOM_TNUM BOM_CI BOM_RMW BOM_R34_NE BOM_R34_SE BOM_R34_SW BOM_R34_NW BOM_R50_NE BOM_R50_SE BOM_R50_SW BOM_R50_NW BOM_R64_NE BOM_R64_SE BOM_R64_SW BOM_R64_NW BOM_ROCI BOM_POCI BOM_EYE BOM_POS_METHOD BOM_PRES_METHOD NADI_LAT NADI_LON NADI_CAT NADI_WIND NADI_PRES WELLINGTON_LAT WELLINGTON_LON WELLINGTON_WIND WELLINGTON_PRES DS824_LAT DS824_LON DS824_STAGE DS824_WIND DS824_PRES TD9636_LAT TD9636_LON TD9636_STAGE TD9636_WIND TD9636_PRES TD9635_LAT TD9635_LON TD9635_WIND TD9635_PRES TD9635_ROCI NEUMANN_LAT NEUMANN_LON NEUMANN_CLASS NEUMANN_WIND NEUMANN_PRES MLC_LAT MLC_LON MLC_CLASS MLC_WIND MLC_PRES USA_GUST BOM_GUST BOM_GUST_PER REUNION_GUST REUNION_GUST_PER USA_SEAHGT USA_SEARAD_NE USA_SEARAD_SE USA_SEARAD_SW USA_SEARAD_NW STORM_SPEED STORM_DIR
2022040S20169 2022 8 SP MM DOVI 2022-02-09 00:00:00 NR -19.6000 168.900 PROVISIONAL 348 330 O_____________ tcvitals SP112022 -19.6000 168.900 35 995 0 65 15 25 65 999 185 65 4 189
2022040S20169 2022 8 SP MM DOVI 2022-02-09 03:00:00 NR -19.8173 168.868 PROVISIONAL 330 313 P_____________ SP112022 -19.8173 168.868 35 993 0 67 22 25 65 999 190 65 4 167
2022040S20169 2022 8 SP MM DOVI 2022-02-09 06:00:00 NR -20.0000 169.000 PROVISIONAL 320 319 O_____________ tcvitals SP112022 -20.0000 169.000 35 991 0 70 30 25 65 999 195 65 6 123
2022040S20169 2022 8 SP MM DOVI 2022-02-09 09:00:00 NR -20.1227 169.360 PROVISIONAL 342 342 P_____________ SP112022 -20.1227 169.360 37 990 0 110 45 97 999 195 52 6 110
2022040S20169 2022 8 SP MM DOVI 2022-02-09 12:00:00 NR -20.2000 169.600 PROVISIONAL 350 326 O_____________ tcvitals SP112022 -20.2000 169.600 39 989 0 150 60 130 999 195 40 1 212
2022040S20169 2022 8 SP MM DOVI 2022-02-09 15:00:00 NR -20.1978 169.317 PROVISIONAL 326 288 P_____________ SP112022 -20.1978 169.317 42 984 0 147 77 135 999 252 40 7 261
2022040S20169 2022 8 SP MM DOVI 2022-02-09 18:00:00 NR -20.3000 168.900 PROVISIONAL 288 250 O_____________ tcvitals SP112022 -20.3000 168.900 45 980 0 145 95 75 140 999 310 40 7 228
2022040S20169 2022 8 SP MM DOVI 2022-02-09 21:00:00 NR -20.6823 168.750 PROVISIONAL 243 199 P_____________ SP112022 -20.6823 168.750 49 978 0 122 115 80 120 1001 355 40 9 197
2022040S20169 2022 8 SP MM DOVI 2022-02-10 00:00:00 NR -21.2000 168.600 PROVISIONAL 199 145 O_____________ tcvitals SP112022 -21.2000 168.600 54 977 0 100 135 85 100 1004 400 40 11 202
2022040S20169 2022 8 SP MM DOVI 2022-02-10 03:00:00 NR -21.7074 168.303 PROVISIONAL 145 92 P_____________ SP112022 -21.7074 168.303 57 976 0 100 132 90 87 1002 375 33 12 213
2022040S20169 2022 8 SP MM DOVI 2022-02-10 06:00:00 NR -22.2000 167.900 PROVISIONAL 92 53 O_____________ tcvitals SP112022 -22.2000 167.900 60 976 0 100 130 95 75 1000 350 27 12 223
2022040S20169 2022 8 SP MM DOVI 2022-02-10 09:00:00 NR -22.6153 167.385 PROVISIONAL 53 45 P_____________ SP112022 -22.6153 167.385 67 972 1 115 130 102 87 1000 350 22 12 229
2022040S20169 2022 8 SP MM DOVI 2022-02-10 12:00:00 NR -23.0000 166.900 PROVISIONAL 67 67 O_____________ tcvitals SP112022 -23.0000 166.900 74 969 1 130 130 110 100 1000 350 17 10 224
2022040S20169 2022 8 SP MM DOVI 2022-02-10 15:00:00 NR -23.3548 166.604 PROVISIONAL 112 112 P_____________ SP112022 -23.3548 166.604 81 962 1 135 145 120 100 1000 350 18 9 210
2022040S20169 2022 8 SP MM DOVI 2022-02-10 18:00:00 NR -23.8000 166.400 PROVISIONAL 159 159 O_____________ tcvitals SP112022 -23.8000 166.400 89 956 2 140 160 130 100 1000 350 20 12 201
2022040S20169 2022 8 SP MM DOVI 2022-02-10 21:00:00 NR -24.4401 166.148 PROVISIONAL 231 231 P_____________ SP112022 -24.4401 166.148 84 959 2 152 160 130 107 1000 350 20 15 195
2022040S20169 2022 8 SP MM DOVI 2022-02-11 00:00:00 NR -25.2000 166.000 PROVISIONAL 320 320 O_____________ tcvitals SP112022 -25.2000 166.000 80 962 1 165 160 130 115 1000 350 20 15 182
2022040S20169 2022 8 SP MM DOVI 2022-02-11 03:00:00 NR -25.9476 166.084 PROVISIONAL 395 395 P_____________ SP112022 -25.9476 166.084 80 960 1 165 165 135 120 999 340 17 16 174
2022040S20169 2022 8 SP MM DOVI 2022-02-11 06:00:00 NR -26.8000 166.200 PROVISIONAL 494 494 O_____________ tcvitals SP112022 -26.8000 166.200 80 959 1 165 170 140 126 998 330 14 18 179
2022040S20169 2022 8 SP MM DOVI 2022-02-11 09:00:00 NR -27.7826 166.130 PROVISIONAL 606 606 P_____________ SP112022 -27.7826 166.130 75 962 1 165 167 147 118 998 330 18 21 185
2022040S20169 2022 8 SP MM DOVI 2022-02-11 12:00:00 NR -28.9000 166.000 PROVISIONAL 729 729 O_____________ tcvitals SP112022 -28.9000 166.000 70 966 1 165 165 155 110 998 330 22 24 186
2022040S20169 2022 8 SP MM DOVI 2022-02-11 15:00:00 NR -30.1650 165.849 PROVISIONAL 797 726 P_____________ SP112022 -30.1650 165.849 65 969 1 167 182 192 137 999 330 26 25 184
2022040S20169 2022 8 SP MM DOVI 2022-02-11 18:00:00 NR -31.4000 165.800 PROVISIONAL 721 654 O_____________ tcvitals SP112022 -31.4000 165.800 60 972 0 170 200 230 165 1000 330 30 23 177
2022040S20169 2022 8 SP MM DOVI 2022-02-11 21:00:00 NR -32.4202 165.978 PROVISIONAL 654 595 P_____________ SP112022 -32.4202 165.978 57 973 0 160 200 205 172 1000 330 32 20 167
2022040S20169 2022 8 SP MM DOVI 2022-02-12 00:00:00 NR -33.3000 166.300 PROVISIONAL 595 O_____________ tcvitals SP112022 -33.3000 166.300 54 975 0 150 200 180 180 1000 330 35 18 163

Digital Typhoon Data and Search

About IBTrACS Database

This database is a web-friendly format of International Best Track Archive for Climate Stewardship (IBTrACS), a global best track data archive curated by NOAA dating back to 1842.

Updated: 2022-11-16